sensor_id;sensor_type;location;lat;lon;timestamp;pressure;altitude;pressure_sealevel;temperature
12918;BMP180;6526;54.312;13.092;2023-04-03T00:00:45;103665.00;;;6.10
12918;BMP180;6526;54.312;13.092;2023-04-03T00:03:11;103668.00;;;6.10
12918;BMP180;6526;54.312;13.092;2023-04-03T00:05:37;103670.00;;;6.10
12918;BMP180;6526;54.312;13.092;2023-04-03T00:08:03;103661.00;;;6.10
12918;BMP180;6526;54.312;13.092;2023-04-03T00:10:30;103667.00;;;6.10
12918;BMP180;6526;54.312;13.092;2023-04-03T00:12:56;103668.00;;;6.20
12918;BMP180;6526;54.312;13.092;2023-04-03T00:15:22;103674.00;;;6.10
12918;BMP180;6526;54.312;13.092;2023-04-03T00:17:48;103668.00;;;6.20
12918;BMP180;6526;54.312;13.092;2023-04-03T00:20:14;103669.00;;;6.20
12918;BMP180;6526;54.312;13.092;2023-04-03T00:22:41;103683.00;;;6.10
12918;BMP180;6526;54.312;13.092;2023-04-03T00:25:07;103670.00;;;6.10
12918;BMP180;6526;54.312;13.092;2023-04-03T00:27:35;103679.00;;;6.10
12918;BMP180;6526;54.312;13.092;2023-04-03T00:30:01;103673.00;;;6.10
12918;BMP180;6526;54.312;13.092;2023-04-03T00:32:27;103675.00;;;6.00
12918;BMP180;6526;54.312;13.092;2023-04-03T00:34:53;103674.00;;;6.10
12918;BMP180;6526;54.312;13.092;2023-04-03T00:37:19;103671.00;;;6.10
12918;BMP180;6526;54.312;13.092;2023-04-03T00:39:46;103679.00;;;6.20
12918;BMP180;6526;54.312;13.092;2023-04-03T00:42:12;103668.00;;;6.10
12918;BMP180;6526;54.312;13.092;2023-04-03T00:47:07;103679.00;;;6.10
12918;BMP180;6526;54.312;13.092;2023-04-03T00:49:34;103674.00;;;6.10
12918;BMP180;6526;54.312;13.092;2023-04-03T00:52:02;103665.00;;;6.00
12918;BMP180;6526;54.312;13.092;2023-04-03T00:54:28;103677.00;;;6.10
12918;BMP180;6526;54.312;13.092;2023-04-03T00:56:56;103674.00;;;6.10
12918;BMP180;6526;54.312;13.092;2023-04-03T00:59:30;103675.00;;;6.10
12918;BMP180;6526;54.312;13.092;2023-04-03T01:01:57;103681.00;;;6.10
12918;BMP180;6526;54.312;13.092;2023-04-03T01:09:32;103680.00;;;6.00
12918;BMP180;6526;54.312;13.092;2023-04-03T01:12:28;103682.00;;;6.00
12918;BMP180;6526;54.312;13.092;2023-04-03T01:14:57;103680.00;;;6.00
12918;BMP180;6526;54.312;13.092;2023-04-03T01:17:39;103678.00;;;6.00
12918;BMP180;6526;54.312;13.092;2023-04-03T01:26:05;103676.00;;;5.80
12918;BMP180;6526;54.312;13.092;2023-04-03T01:28:35;103676.00;;;5.90
12918;BMP180;6526;54.312;13.092;2023-04-03T01:31:25;103694.00;;;5.90
12918;BMP180;6526;54.312;13.092;2023-04-03T01:33:52;103679.00;;;5.80
12918;BMP180;6526;54.312;13.092;2023-04-03T01:36:23;103692.00;;;5.90
12918;BMP180;6526;54.312;13.092;2023-04-03T01:38:50;103687.00;;;5.90
12918;BMP180;6526;54.312;13.092;2023-04-03T01:41:17;103692.00;;;5.90
12918;BMP180;6526;54.312;13.092;2023-04-03T01:43:44;103695.00;;;5.90
12918;BMP180;6526;54.312;13.092;2023-04-03T01:46:10;103686.00;;;5.80
12918;BMP180;6526;54.312;13.092;2023-04-03T01:48:36;103696.00;;;5.80
12918;BMP180;6526;54.312;13.092;2023-04-03T01:51:02;103692.00;;;5.70
12918;BMP180;6526;54.312;13.092;2023-04-03T01:53:29;103699.00;;;5.70
12918;BMP180;6526;54.312;13.092;2023-04-03T01:55:55;103704.00;;;5.70
12918;BMP180;6526;54.312;13.092;2023-04-03T01:58:21;103702.00;;;5.70
12918;BMP180;6526;54.312;13.092;2023-04-03T02:00:47;103704.00;;;5.70
12918;BMP180;6526;54.312;13.092;2023-04-03T02:03:13;103707.00;;;5.70
12918;BMP180;6526;54.312;13.092;2023-04-03T02:05:40;103709.00;;;5.70
12918;BMP180;6526;54.312;13.092;2023-04-03T02:08:06;103700.00;;;5.70
12918;BMP180;6526;54.312;13.092;2023-04-03T02:10:32;103703.00;;;5.60
12918;BMP180;6526;54.312;13.092;2023-04-03T02:12:58;103698.00;;;5.40
12918;BMP180;6526;54.312;13.092;2023-04-03T02:15:24;103698.00;;;5.50
12918;BMP180;6526;54.312;13.092;2023-04-03T02:17:51;103704.00;;;5.60
12918;BMP180;6526;54.312;13.092;2023-04-03T02:20:18;103711.00;;;5.60
12918;BMP180;6526;54.312;13.092;2023-04-03T02:22:44;103712.00;;;5.60
12918;BMP180;6526;54.312;13.092;2023-04-03T02:25:10;103708.00;;;5.60
12918;BMP180;6526;54.312;13.092;2023-04-03T02:27:36;103701.00;;;5.50
12918;BMP180;6526;54.312;13.092;2023-04-03T02:30:03;103701.00;;;5.70
12918;BMP180;6526;54.312;13.092;2023-04-03T02:32:31;103710.00;;;5.60
12918;BMP180;6526;54.312;13.092;2023-04-03T02:34:57;103708.00;;;5.50
12918;BMP180;6526;54.312;13.092;2023-04-03T02:37:24;103717.00;;;5.60
12918;BMP180;6526;54.312;13.092;2023-04-03T02:39:50;103720.00;;;5.60
12918;BMP180;6526;54.312;13.092;2023-04-03T02:42:16;103708.00;;;5.60
12918;BMP180;6526;54.312;13.092;2023-04-03T02:44:42;103720.00;;;5.50
12918;BMP180;6526;54.312;13.092;2023-04-03T02:47:08;103719.00;;;5.60
12918;BMP180;6526;54.312;13.092;2023-04-03T02:49:34;103720.00;;;5.60
12918;BMP180;6526;54.312;13.092;2023-04-03T02:52:00;103712.00;;;5.60
12918;BMP180;6526;54.312;13.092;2023-04-03T02:54:26;103710.00;;;5.50
12918;BMP180;6526;54.312;13.092;2023-04-03T02:56:56;103710.00;;;5.40
12918;BMP180;6526;54.312;13.092;2023-04-03T02:59:22;103706.00;;;5.50
12918;BMP180;6526;54.312;13.092;2023-04-03T03:01:48;103712.00;;;5.50
12918;BMP180;6526;54.312;13.092;2023-04-03T03:04:14;103714.00;;;5.50
12918;BMP180;6526;54.312;13.092;2023-04-03T03:06:40;103723.00;;;5.60
12918;BMP180;6526;54.312;13.092;2023-04-03T03:09:07;103714.00;;;5.60
12918;BMP180;6526;54.312;13.092;2023-04-03T03:11:33;103722.00;;;5.60
12918;BMP180;6526;54.312;13.092;2023-04-03T03:13:59;103711.00;;;5.50
12918;BMP180;6526;54.312;13.092;2023-04-03T03:16:25;103724.00;;;5.50
12918;BMP180;6526;54.312;13.092;2023-04-03T03:18:51;103719.00;;;5.40
12918;BMP180;6526;54.312;13.092;2023-04-03T03:21:17;103726.00;;;5.50
12918;BMP180;6526;54.312;13.092;2023-04-03T03:23:43;103741.00;;;5.50
12918;BMP180;6526;54.312;13.092;2023-04-03T03:26:10;103725.00;;;5.50
12918;BMP180;6526;54.312;13.092;2023-04-03T03:28:38;103733.00;;;5.50
12918;BMP180;6526;54.312;13.092;2023-04-03T03:31:04;103715.00;;;5.50
12918;BMP180;6526;54.312;13.092;2023-04-03T03:33:31;103725.00;;;5.50
12918;BMP180;6526;54.312;13.092;2023-04-03T03:35:58;103721.00;;;5.40
12918;BMP180;6526;54.312;13.092;2023-04-03T03:38:24;103726.00;;;5.40
12918;BMP180;6526;54.312;13.092;2023-04-03T03:40:51;103726.00;;;5.40
12918;BMP180;6526;54.312;13.092;2023-04-03T03:43:17;103724.00;;;5.30
12918;BMP180;6526;54.312;13.092;2023-04-03T03:45:44;103725.00;;;5.30
12918;BMP180;6526;54.312;13.092;2023-04-03T03:48:11;103724.00;;;5.30
12918;BMP180;6526;54.312;13.092;2023-04-03T03:50:37;103720.00;;;5.30
12918;BMP180;6526;54.312;13.092;2023-04-03T03:53:03;103724.00;;;5.30
12918;BMP180;6526;54.312;13.092;2023-04-03T03:55:29;103727.00;;;5.30
12918;BMP180;6526;54.312;13.092;2023-04-03T03:57:55;103724.00;;;5.30
12918;BMP180;6526;54.312;13.092;2023-04-03T04:00:21;103715.00;;;5.30
12918;BMP180;6526;54.312;13.092;2023-04-03T04:02:47;103729.00;;;5.40
12918;BMP180;6526;54.312;13.092;2023-04-03T04:05:14;103736.00;;;5.30
12918;BMP180;6526;54.312;13.092;2023-04-03T04:07:40;103722.00;;;5.30
12918;BMP180;6526;54.312;13.092;2023-04-03T04:10:07;103731.00;;;5.20
12918;BMP180;6526;54.312;13.092;2023-04-03T04:12:33;103727.00;;;5.20
12918;BMP180;6526;54.312;13.092;2023-04-03T04:15:01;103739.00;;;5.20
12918;BMP180;6526;54.312;13.092;2023-04-03T04:17:27;103734.00;;;5.30
12918;BMP180;6526;54.312;13.092;2023-04-03T04:19:53;103734.00;;;5.30
12918;BMP180;6526;54.312;13.092;2023-04-03T04:22:19;103738.00;;;5.20
12918;BMP180;6526;54.312;13.092;2023-04-03T04:24:45;103735.00;;;5.20
12918;BMP180;6526;54.312;13.092;2023-04-03T04:27:11;103737.00;;;5.10
12918;BMP180;6526;54.312;13.092;2023-04-03T04:29:37;103741.00;;;5.10
12918;BMP180;6526;54.312;13.092;2023-04-03T04:32:04;103739.00;;;5.10
12918;BMP180;6526;54.312;13.092;2023-04-03T04:34:30;103742.00;;;5.10
12918;BMP180;6526;54.312;13.092;2023-04-03T04:36:56;103747.00;;;5.00
12918;BMP180;6526;54.312;13.092;2023-04-03T04:39:22;103749.00;;;5.00
12918;BMP180;6526;54.312;13.092;2023-04-03T04:41:48;103745.00;;;5.10
12918;BMP180;6526;54.312;13.092;2023-04-03T04:44:14;103757.00;;;5.10
12918;BMP180;6526;54.312;13.092;2023-04-03T04:46:41;103761.00;;;5.10
12918;BMP180;6526;54.312;13.092;2023-04-03T04:49:07;103760.00;;;5.10
12918;BMP180;6526;54.312;13.092;2023-04-03T04:51:33;103755.00;;;5.00
12918;BMP180;6526;54.312;13.092;2023-04-03T04:53:59;103758.00;;;5.10
12918;BMP180;6526;54.312;13.092;2023-04-03T04:56:25;103768.00;;;5.00
12918;BMP180;6526;54.312;13.092;2023-04-03T04:58:51;103768.00;;;5.00
12918;BMP180;6526;54.312;13.092;2023-04-03T05:01:17;103760.00;;;5.00
12918;BMP180;6526;54.312;13.092;2023-04-03T05:03:44;103767.00;;;5.10
12918;BMP180;6526;54.312;13.092;2023-04-03T05:06:10;103782.00;;;5.20
12918;BMP180;6526;54.312;13.092;2023-04-03T05:08:36;103783.00;;;5.30
12918;BMP180;6526;54.312;13.092;2023-04-03T05:11:02;103776.00;;;5.20
12918;BMP180;6526;54.312;13.092;2023-04-03T05:13:28;103782.00;;;5.30
12918;BMP180;6526;54.312;13.092;2023-04-03T05:15:54;103773.00;;;5.40
12918;BMP180;6526;54.312;13.092;2023-04-03T05:18:20;103777.00;;;5.40
12918;BMP180;6526;54.312;13.092;2023-04-03T05:20:49;103776.00;;;5.40
12918;BMP180;6526;54.312;13.092;2023-04-03T05:23:15;103784.00;;;5.50
12918;BMP180;6526;54.312;13.092;2023-04-03T05:25:41;103780.00;;;5.50
12918;BMP180;6526;54.312;13.092;2023-04-03T05:28:09;103775.00;;;5.50
12918;BMP180;6526;54.312;13.092;2023-04-03T05:30:35;103783.00;;;5.50
12918;BMP180;6526;54.312;13.092;2023-04-03T05:33:02;103782.00;;;5.50
12918;BMP180;6526;54.312;13.092;2023-04-03T05:35:28;103788.00;;;5.50
12918;BMP180;6526;54.312;13.092;2023-04-03T05:37:54;103779.00;;;5.60
12918;BMP180;6526;54.312;13.092;2023-04-03T05:40:21;103794.00;;;5.70
12918;BMP180;6526;54.312;13.092;2023-04-03T05:42:47;103785.00;;;5.90
12918;BMP180;6526;54.312;13.092;2023-04-03T05:45:13;103789.00;;;5.90
12918;BMP180;6526;54.312;13.092;2023-04-03T05:47:39;103789.00;;;6.00
12918;BMP180;6526;54.312;13.092;2023-04-03T05:50:06;103787.00;;;6.00
12918;BMP180;6526;54.312;13.092;2023-04-03T05:52:36;103799.00;;;6.10
12918;BMP180;6526;54.312;13.092;2023-04-03T05:55:04;103801.00;;;6.20
12918;BMP180;6526;54.312;13.092;2023-04-03T05:57:30;103804.00;;;6.20
12918;BMP180;6526;54.312;13.092;2023-04-03T05:59:56;103806.00;;;6.00
12918;BMP180;6526;54.312;13.092;2023-04-03T06:02:23;103799.00;;;6.10
12918;BMP180;6526;54.312;13.092;2023-04-03T06:04:50;103798.00;;;6.10
12918;BMP180;6526;54.312;13.092;2023-04-03T06:07:24;103806.00;;;6.20
12918;BMP180;6526;54.312;13.092;2023-04-03T06:09:55;103801.00;;;6.30
12918;BMP180;6526;54.312;13.092;2023-04-03T06:12:22;103802.00;;;6.40
12918;BMP180;6526;54.312;13.092;2023-04-03T06:14:49;103806.00;;;6.50
12918;BMP180;6526;54.312;13.092;2023-04-03T06:17:16;103804.00;;;6.60
12918;BMP180;6526;54.312;13.092;2023-04-03T06:19:44;103801.00;;;6.60
12918;BMP180;6526;54.312;13.092;2023-04-03T06:22:10;103808.00;;;6.60
12918;BMP180;6526;54.312;13.092;2023-04-03T06:24:37;103808.00;;;6.60
12918;BMP180;6526;54.312;13.092;2023-04-03T06:27:04;103807.00;;;6.80
12918;BMP180;6526;54.312;13.092;2023-04-03T06:29:30;103805.00;;;6.90
12918;BMP180;6526;54.312;13.092;2023-04-03T06:31:56;103807.00;;;7.10
12918;BMP180;6526;54.312;13.092;2023-04-03T06:34:23;103811.00;;;7.30
12918;BMP180;6526;54.312;13.092;2023-04-03T06:36:49;103823.00;;;7.40
12918;BMP180;6526;54.312;13.092;2023-04-03T06:39:18;103816.00;;;7.40
12918;BMP180;6526;54.312;13.092;2023-04-03T06:41:46;103826.00;;;7.50
12918;BMP180;6526;54.312;13.092;2023-04-03T06:44:12;103824.00;;;7.70
12918;BMP180;6526;54.312;13.092;2023-04-03T06:46:42;103822.00;;;7.60
12918;BMP180;6526;54.312;13.092;2023-04-03T06:49:08;103824.00;;;7.80
12918;BMP180;6526;54.312;13.092;2023-04-03T06:51:35;103834.00;;;7.90
12918;BMP180;6526;54.312;13.092;2023-04-03T06:54:03;103826.00;;;8.00
12918;BMP180;6526;54.312;13.092;2023-04-03T06:56:29;103820.00;;;8.00
12918;BMP180;6526;54.312;13.092;2023-04-03T06:58:57;103827.00;;;7.90
12918;BMP180;6526;54.312;13.092;2023-04-03T07:01:25;103830.00;;;8.00
12918;BMP180;6526;54.312;13.092;2023-04-03T07:03:52;103825.00;;;8.10
12918;BMP180;6526;54.312;13.092;2023-04-03T07:06:18;103830.00;;;8.10
12918;BMP180;6526;54.312;13.092;2023-04-03T07:08:45;103836.00;;;8.20
12918;BMP180;6526;54.312;13.092;2023-04-03T07:11:13;103832.00;;;8.30
12918;BMP180;6526;54.312;13.092;2023-04-03T07:13:39;103826.00;;;8.30
12918;BMP180;6526;54.312;13.092;2023-04-03T07:16:06;103833.00;;;8.30
12918;BMP180;6526;54.312;13.092;2023-04-03T07:18:33;103840.00;;;8.20
12918;BMP180;6526;54.312;13.092;2023-04-03T07:20:59;103832.00;;;8.20
12918;BMP180;6526;54.312;13.092;2023-04-03T07:23:25;103837.00;;;8.50
12918;BMP180;6526;54.312;13.092;2023-04-03T07:25:52;103797.00;;;8.60
12918;BMP180;6526;54.312;13.092;2023-04-03T07:28:19;103839.00;;;8.50
12918;BMP180;6526;54.312;13.092;2023-04-03T07:30:48;103844.00;;;8.30
12918;BMP180;6526;54.312;13.092;2023-04-03T07:33:15;103842.00;;;8.10
12918;BMP180;6526;54.312;13.092;2023-04-03T07:35:43;103844.00;;;7.90
12918;BMP180;6526;54.312;13.092;2023-04-03T07:38:10;103840.00;;;7.80
12918;BMP180;6526;54.312;13.092;2023-04-03T07:40:37;103840.00;;;7.90
12918;BMP180;6526;54.312;13.092;2023-04-03T07:43:03;103839.00;;;8.00
12918;BMP180;6526;54.312;13.092;2023-04-03T07:45:30;103841.00;;;8.30
12918;BMP180;6526;54.312;13.092;2023-04-03T07:47:56;103843.00;;;8.50
12918;BMP180;6526;54.312;13.092;2023-04-03T07:50:22;103831.00;;;8.60
12918;BMP180;6526;54.312;13.092;2023-04-03T07:52:48;103844.00;;;8.60
12918;BMP180;6526;54.312;13.092;2023-04-03T07:55:16;103836.00;;;8.80
12918;BMP180;6526;54.312;13.092;2023-04-03T07:57:42;103849.00;;;8.80
12918;BMP180;6526;54.312;13.092;2023-04-03T08:00:09;103836.00;;;8.80
12918;BMP180;6526;54.312;13.092;2023-04-03T08:02:36;103841.00;;;8.80
12918;BMP180;6526;54.312;13.092;2023-04-03T08:05:02;103843.00;;;8.70
12918;BMP180;6526;54.312;13.092;2023-04-03T08:07:29;103845.00;;;8.80
12918;BMP180;6526;54.312;13.092;2023-04-03T08:09:55;103849.00;;;9.00
12918;BMP180;6526;54.312;13.092;2023-04-03T08:12:21;103854.00;;;9.20
12918;BMP180;6526;54.312;13.092;2023-04-03T08:14:47;103857.00;;;9.30
12918;BMP180;6526;54.312;13.092;2023-04-03T08:17:13;103849.00;;;9.40
12918;BMP180;6526;54.312;13.092;2023-04-03T08:19:40;103846.00;;;9.50
12918;BMP180;6526;54.312;13.092;2023-04-03T08:22:06;103856.00;;;9.50
12918;BMP180;6526;54.312;13.092;2023-04-03T08:24:34;103849.00;;;9.60
12918;BMP180;6526;54.312;13.092;2023-04-03T08:27:00;103851.00;;;9.70
12918;BMP180;6526;54.312;13.092;2023-04-03T08:29:26;103854.00;;;9.70
12918;BMP180;6526;54.312;13.092;2023-04-03T08:31:53;103853.00;;;9.80
12918;BMP180;6526;54.312;13.092;2023-04-03T08:34:20;103855.00;;;9.90
12918;BMP180;6526;54.312;13.092;2023-04-03T08:36:46;103859.00;;;10.20
12918;BMP180;6526;54.312;13.092;2023-04-03T08:39:12;103862.00;;;10.30
12918;BMP180;6526;54.312;13.092;2023-04-03T08:47:11;103858.00;;;10.00
12918;BMP180;6526;54.312;13.092;2023-04-03T08:49:48;103855.00;;;10.00
12918;BMP180;6526;54.312;13.092;2023-04-03T08:52:36;103843.00;;;9.90
12918;BMP180;6526;54.312;13.092;2023-04-03T08:58:11;103853.00;;;9.70
12918;BMP180;6526;54.312;13.092;2023-04-03T09:00:50;103858.00;;;9.60
12918;BMP180;6526;54.312;13.092;2023-04-03T09:03:21;103863.00;;;9.50
12918;BMP180;6526;54.312;13.092;2023-04-03T09:06:03;103860.00;;;9.50
12918;BMP180;6526;54.312;13.092;2023-04-03T09:11:38;103852.00;;;9.20
12918;BMP180;6526;54.312;13.092;2023-04-03T09:14:38;103851.00;;;9.00
12918;BMP180;6526;54.312;13.092;2023-04-03T09:17:21;103862.00;;;8.90
12918;BMP180;6526;54.312;13.092;2023-04-03T09:22:56;103867.00;;;8.90
12918;BMP180;6526;54.312;13.092;2023-04-03T09:25:28;103862.00;;;8.60
12918;BMP180;6526;54.312;13.092;2023-04-03T09:28:01;103876.00;;;8.60
12918;BMP180;6526;54.312;13.092;2023-04-03T09:30:28;103882.00;;;8.60
12918;BMP180;6526;54.312;13.092;2023-04-03T09:32:56;103862.00;;;8.70
12918;BMP180;6526;54.312;13.092;2023-04-03T09:35:31;103870.00;;;8.90
12918;BMP180;6526;54.312;13.092;2023-04-03T09:45:46;103869.00;;;8.60
12918;BMP180;6526;54.312;13.092;2023-04-03T09:48:16;103867.00;;;8.60
12918;BMP180;6526;54.312;13.092;2023-04-03T09:51:03;103862.00;;;8.50
12918;BMP180;6526;54.312;13.092;2023-04-03T09:53:39;103866.00;;;8.40
12918;BMP180;6526;54.312;13.092;2023-04-03T09:58:46;103856.00;;;8.60
12918;BMP180;6526;54.312;13.092;2023-04-03T10:01:30;103870.00;;;8.80
12918;BMP180;6526;54.312;13.092;2023-04-03T10:04:16;103854.00;;;9.00
12918;BMP180;6526;54.312;13.092;2023-04-03T10:06:48;103857.00;;;8.90
12918;BMP180;6526;54.312;13.092;2023-04-03T10:09:33;103854.00;;;8.90
12918;BMP180;6526;54.312;13.092;2023-04-03T10:12:07;103843.00;;;9.00
12918;BMP180;6526;54.312;13.092;2023-04-03T10:14:39;103847.00;;;8.80
12918;BMP180;6526;54.312;13.092;2023-04-03T10:17:32;103855.00;;;8.70
12918;BMP180;6526;54.312;13.092;2023-04-03T10:30:58;103842.00;;;8.80
12918;BMP180;6526;54.312;13.092;2023-04-03T10:36:45;103845.00;;;9.20
12918;BMP180;6526;54.312;13.092;2023-04-03T10:39:40;103829.00;;;9.30
12918;BMP180;6526;54.312;13.092;2023-04-03T10:47:56;103832.00;;;9.60
12918;BMP180;6526;54.312;13.092;2023-04-03T10:58:45;103828.00;;;10.40
12918;BMP180;6526;54.312;13.092;2023-04-03T11:01:27;103834.00;;;10.30
12918;BMP180;6526;54.312;13.092;2023-04-03T11:03:58;103831.00;;;10.20
12918;BMP180;6526;54.312;13.092;2023-04-03T11:06:28;103828.00;;;10.30
12918;BMP180;6526;54.312;13.092;2023-04-03T11:09:02;103834.00;;;10.50
12918;BMP180;6526;54.312;13.092;2023-04-03T11:11:37;103832.00;;;10.50
12918;BMP180;6526;54.312;13.092;2023-04-03T11:14:21;103834.00;;;10.70
12918;BMP180;6526;54.312;13.092;2023-04-03T11:17:19;103822.00;;;10.90
12918;BMP180;6526;54.312;13.092;2023-04-03T11:22:49;103823.00;;;11.00
12918;BMP180;6526;54.312;13.092;2023-04-03T11:25:25;103819.00;;;11.00
12918;BMP180;6526;54.312;13.092;2023-04-03T11:27:57;103801.00;;;10.90
12918;BMP180;6526;54.312;13.092;2023-04-03T11:30:44;103803.00;;;10.90
12918;BMP180;6526;54.312;13.092;2023-04-03T11:36:30;103801.00;;;10.60
12918;BMP180;6526;54.312;13.092;2023-04-03T11:39:02;103784.00;;;10.80
12918;BMP180;6526;54.312;13.092;2023-04-03T11:41:33;103796.00;;;11.00
12918;BMP180;6526;54.312;13.092;2023-04-03T11:44:00;103801.00;;;11.10
12918;BMP180;6526;54.312;13.092;2023-04-03T11:47:03;103799.00;;;11.00
12918;BMP180;6526;54.312;13.092;2023-04-03T11:50:03;103798.00;;;10.90
12918;BMP180;6526;54.312;13.092;2023-04-03T12:05:53;103765.00;;;11.10
12918;BMP180;6526;54.312;13.092;2023-04-03T12:11:14;103782.00;;;11.40
12918;BMP180;6526;54.312;13.092;2023-04-03T12:16:32;103779.00;;;11.60
12918;BMP180;6526;54.312;13.092;2023-04-03T12:19:24;103776.00;;;11.50
12918;BMP180;6526;54.312;13.092;2023-04-03T12:24:30;103774.00;;;11.50
12918;BMP180;6526;54.312;13.092;2023-04-03T12:29:59;103775.00;;;11.50
12918;BMP180;6526;54.312;13.092;2023-04-03T12:35:47;103761.00;;;11.40
12918;BMP180;6526;54.312;13.092;2023-04-03T12:43:45;103769.00;;;10.50
12918;BMP180;6526;54.312;13.092;2023-04-03T12:46:19;103773.00;;;10.50
12918;BMP180;6526;54.312;13.092;2023-04-03T12:48:50;103777.00;;;10.40
12918;BMP180;6526;54.312;13.092;2023-04-03T12:51:37;103769.00;;;10.50
12918;BMP180;6526;54.312;13.092;2023-04-03T12:56:44;103760.00;;;10.70
12918;BMP180;6526;54.312;13.092;2023-04-03T12:59:25;103758.00;;;10.60
12918;BMP180;6526;54.312;13.092;2023-04-03T13:01:59;103754.00;;;10.80
12918;BMP180;6526;54.312;13.092;2023-04-03T13:04:27;103764.00;;;10.70
12918;BMP180;6526;54.312;13.092;2023-04-03T13:06:54;103745.00;;;10.90
12918;BMP180;6526;54.312;13.092;2023-04-03T13:09:29;103761.00;;;10.80
12918;BMP180;6526;54.312;13.092;2023-04-03T13:12:03;103757.00;;;10.80
12918;BMP180;6526;54.312;13.092;2023-04-03T13:14:30;103749.00;;;10.30
12918;BMP180;6526;54.312;13.092;2023-04-03T13:19:25;103760.00;;;9.60
12918;BMP180;6526;54.312;13.092;2023-04-03T13:22:04;103756.00;;;9.60
12918;BMP180;6526;54.312;13.092;2023-04-03T13:24:34;103758.00;;;9.60
12918;BMP180;6526;54.312;13.092;2023-04-03T13:27:02;103761.00;;;9.30
12918;BMP180;6526;54.312;13.092;2023-04-03T13:29:32;103762.00;;;9.40
12918;BMP180;6526;54.312;13.092;2023-04-03T13:32:01;103745.00;;;9.40
12918;BMP180;6526;54.312;13.092;2023-04-03T13:34:40;103748.00;;;9.60
12918;BMP180;6526;54.312;13.092;2023-04-03T13:37:11;103746.00;;;9.60
12918;BMP180;6526;54.312;13.092;2023-04-03T13:39:44;103753.00;;;9.60
12918;BMP180;6526;54.312;13.092;2023-04-03T13:42:23;103748.00;;;9.80
12918;BMP180;6526;54.312;13.092;2023-04-03T13:45:06;103748.00;;;10.00
12918;BMP180;6526;54.312;13.092;2023-04-03T13:47:40;103740.00;;;9.90
12918;BMP180;6526;54.312;13.092;2023-04-03T13:52:45;103742.00;;;9.80
12918;BMP180;6526;54.312;13.092;2023-04-03T13:55:28;103744.00;;;9.80
12918;BMP180;6526;54.312;13.092;2023-04-03T13:57:58;103726.00;;;9.90
12918;BMP180;6526;54.312;13.092;2023-04-03T14:00:38;103733.00;;;9.90
12918;BMP180;6526;54.312;13.092;2023-04-03T14:03:25;103734.00;;;9.90
12918;BMP180;6526;54.312;13.092;2023-04-03T14:05:53;103729.00;;;9.80
12918;BMP180;6526;54.312;13.092;2023-04-03T14:08:19;103730.00;;;9.70
12918;BMP180;6526;54.312;13.092;2023-04-03T14:10:46;103733.00;;;9.60
12918;BMP180;6526;54.312;13.092;2023-04-03T14:13:17;103694.00;;;9.70
12918;BMP180;6526;54.312;13.092;2023-04-03T14:15:45;103726.00;;;9.80
12918;BMP180;6526;54.312;13.092;2023-04-03T14:18:18;103724.00;;;9.90
12918;BMP180;6526;54.312;13.092;2023-04-03T14:20:45;103730.00;;;9.90
12918;BMP180;6526;54.312;13.092;2023-04-03T14:23:11;103724.00;;;10.00
12918;BMP180;6526;54.312;13.092;2023-04-03T14:25:37;103726.00;;;10.00
12918;BMP180;6526;54.312;13.092;2023-04-03T14:28:19;103725.00;;;9.90
12918;BMP180;6526;54.312;13.092;2023-04-03T14:30:47;103712.00;;;9.70
12918;BMP180;6526;54.312;13.092;2023-04-03T14:33:19;103725.00;;;9.60
12918;BMP180;6526;54.312;13.092;2023-04-03T14:35:46;103724.00;;;9.40
12918;BMP180;6526;54.312;13.092;2023-04-03T14:38:24;103713.00;;;9.30
12918;BMP180;6526;54.312;13.092;2023-04-03T14:40:51;103713.00;;;9.00
12918;BMP180;6526;54.312;13.092;2023-04-03T14:43:17;103709.00;;;8.80
12918;BMP180;6526;54.312;13.092;2023-04-03T14:45:44;103715.00;;;8.90
12918;BMP180;6526;54.312;13.092;2023-04-03T14:48:20;103709.00;;;9.00
12918;BMP180;6526;54.312;13.092;2023-04-03T14:50:50;103705.00;;;8.80
12918;BMP180;6526;54.312;13.092;2023-04-03T14:53:17;103708.00;;;9.00
12918;BMP180;6526;54.312;13.092;2023-04-03T14:55:46;103703.00;;;9.00
12918;BMP180;6526;54.312;13.092;2023-04-03T14:58:14;103709.00;;;9.00
12918;BMP180;6526;54.312;13.092;2023-04-03T15:00:40;103703.00;;;8.90
12918;BMP180;6526;54.312;13.092;2023-04-03T15:03:09;103702.00;;;9.00
12918;BMP180;6526;54.312;13.092;2023-04-03T15:05:38;103692.00;;;9.00
12918;BMP180;6526;54.312;13.092;2023-04-03T15:08:04;103709.00;;;8.90
12918;BMP180;6526;54.312;13.092;2023-04-03T15:10:31;103711.00;;;8.80
12918;BMP180;6526;54.312;13.092;2023-04-03T15:12:57;103700.00;;;8.60
12918;BMP180;6526;54.312;13.092;2023-04-03T15:15:24;103706.00;;;8.50
12918;BMP180;6526;54.312;13.092;2023-04-03T15:17:55;103689.00;;;8.40
12918;BMP180;6526;54.312;13.092;2023-04-03T15:20:25;103708.00;;;8.50
12918;BMP180;6526;54.312;13.092;2023-04-03T15:22:52;103699.00;;;8.50
12918;BMP180;6526;54.312;13.092;2023-04-03T15:25:18;103700.00;;;8.50
12918;BMP180;6526;54.312;13.092;2023-04-03T15:27:45;103697.00;;;8.50
12918;BMP180;6526;54.312;13.092;2023-04-03T15:30:17;103688.00;;;8.60
12918;BMP180;6526;54.312;13.092;2023-04-03T15:32:43;103701.00;;;8.60
12918;BMP180;6526;54.312;13.092;2023-04-03T15:35:10;103694.00;;;8.50
12918;BMP180;6526;54.312;13.092;2023-04-03T15:37:36;103701.00;;;8.40
12918;BMP180;6526;54.312;13.092;2023-04-03T15:40:04;103696.00;;;8.30
12918;BMP180;6526;54.312;13.092;2023-04-03T15:42:30;103696.00;;;8.20
12918;BMP180;6526;54.312;13.092;2023-04-03T15:44:56;103694.00;;;8.20
12918;BMP180;6526;54.312;13.092;2023-04-03T15:47:22;103692.00;;;8.20
12918;BMP180;6526;54.312;13.092;2023-04-03T15:49:48;103688.00;;;8.30
12918;BMP180;6526;54.312;13.092;2023-04-03T15:52:14;103684.00;;;8.40
12918;BMP180;6526;54.312;13.092;2023-04-03T15:54:40;103685.00;;;8.40
12918;BMP180;6526;54.312;13.092;2023-04-03T15:57:06;103684.00;;;8.50
12918;BMP180;6526;54.312;13.092;2023-04-03T15:59:32;103692.00;;;8.40
12918;BMP180;6526;54.312;13.092;2023-04-03T16:01:59;103698.00;;;8.40
12918;BMP180;6526;54.312;13.092;2023-04-03T16:04:27;103698.00;;;8.30
12918;BMP180;6526;54.312;13.092;2023-04-03T16:06:53;103696.00;;;8.20
12918;BMP180;6526;54.312;13.092;2023-04-03T16:09:19;103695.00;;;8.10
12918;BMP180;6526;54.312;13.092;2023-04-03T16:11:45;103696.00;;;8.20